Main page
METAR-TAF:

METAR-TAF

Airports :

Beauvais–Tillé Airport

Beauvais, France

latitude: 49-28N, longitude: 002-07E, elevation: 109 m

Current weather observation

The report was made 35 minutes ago, at 19:30 UTC
Wind 5 kt from the West
Temperature 18°C
Humidity 73%
Pressure 1012 hPa
Visibility 10 km or more

METAR: LFOB 281930Z AUTO 26005KT 9999 FEW039/// BKN049/// BKN060/// ///TCU 18/13 Q1012 BECMG BKN025

Time: 22:05 (20:05 UTC)

Forecast

The report was made 3 hours and 5 minutes ago, at 17:00 UTC
Forecast valid from 28 at 18 UTC to 29 at 18 UTC
Wind 10 kt from the West/Southwest
Visibility 10 km or more
Broken clouds at a height of 2500 ft

TAF: LFOB 281700Z 2818/2918 24010KT 9999 BKN025

Weather observations and forecasts of more than 4000 airports (METAR and TAF reports).

The available stations are represented by yellow and red dots on the map.

Hover mouse over dot to see the name of the station.

Then click to see weather observations and forecasts.

To change the map : click on the green buttons with a black cross to zoom in, on the green button with a dash to zoom out, or on the green arrows for adjacent maps.


METAR-TAF: